Latest Coastal Weather Observations for Rowley Shoals

IDW60701

Issued at 2:23 pm WST Friday 28 April 2017 (issued every 10 minutes, with the page automatically refreshed every 10 minutes)

About coastal observations | Map of coastal stations | Coastal observations for WA | Marine services | Other Formats
Station Details ID: 200713 Name: ROWLEY SHOALS Lat: -17.52 Lon: 118.95 Height: 0.0 m
Data from the previous 72 hours. | See also: Recent months at Rowley Shoals
Date/Time
WST
Temp
°C
Wind Pressure Rain since
9am
mm
Weather Cloud Vis
km
Sea
Height
m
Swell
Dir  Spd
kts
Gust
kts
hPa Trend Height
m
Period
s
Dir
28/02:00pm 28.6 SE 17 19 1011.6 - - - - - - - - -
28/01:30pm 28.6 SE 17 20 1011.8 - - - - - - - - -
28/01:00pm 28.6 SE 17 20 1011.9 - - - - - - - - -
28/12:30pm 28.9 SE 17 20 1012.3 - - - - - - - - -
28/12:00pm 29.0 SE 17 21 1012.3 - - - - - - - - -
28/11:30am 29.1 SE 18 21 1013.0 - - - - - - - - -
28/11:00am 29.2 SE 18 21 1013.1 - - - - - - - - -
28/10:30am 29.2 ESE 18 21 1013.4 - - - - - - - - -
28/10:00am 29.1 ESE 18 20 1013.6 - - - - - - - - -
28/09:30am 29.2 ESE 18 21 1014.0 - - - - - - - - -
28/09:00am 29.4 ESE 18 21 1013.8 - - - - - - - - -
28/08:30am 29.2 ESE 19 22 1013.6 - - - - - - - - -
28/08:00am 29.0 ESE 19 22 1013.4 - - - - - - - - -
28/07:30am 28.9 ESE 18 22 1013.4 - - - - - - - - -
28/07:00am 28.8 ESE 19 23 1013.1 - - - - - - - - -
28/06:30am 28.9 ESE 20 24 1012.9 - - - - - - - - -
28/06:00am 29.0 ESE 21 25 1012.5 - - - - - - - - -
28/05:30am 28.8 ESE 20 24 1012.4 - - - - - - - - -
28/05:00am 29.1 ESE 20 24 1012.1 - - - - - - - - -
28/04:30am 29.1 SE 20 24 1012.0 - - - - - - - - -
28/04:00am 29.1 ESE 21 24 1011.8 - - - - - - - - -
28/03:30am 29.3 ESE 21 25 1011.9 - - - - - - - - -
28/03:00am 29.5 SE 21 23 1011.9 - - - - - - - - -
28/02:30am 29.5 SE 20 23 1012.0 - - - - - - - - -
28/02:00am 29.7 SE 20 24 1012.1 - - - - - - - - -
28/01:30am 29.5 SE 19 22 1012.4 - - - - - - - - -
28/01:00am 29.6 SE 18 21 1012.5 - - - - - - - - -
28/12:30am 29.7 SSE 18 21 1012.7 - - - - - - - - -
28/12:00am 29.7 SSE 18 21 1012.6 - - - - - - - - -
 
Date/Time
WST
Temp
°C
Wind Pressure Rain since
9am
mm
Weather Cloud Vis
km
Sea
Height
m
Swell
Dir  Spd
kts
Gust
kts
hPa Trend Height
m
Period
s
Dir
27/11:30pm 29.6 SSE 17 19 1013.0 - - - - - - - - -
27/11:00pm 29.7 SE 15 17 1013.0 - - - - - - - - -
27/10:30pm 29.6 SE 16 19 1013.3 - - - - - - - - -
27/10:00pm 29.4 SSE 17 19 1013.1 - - - - - - - - -
27/09:30pm 29.3 SE 17 20 1013.3 - - - - - - - - -
27/09:00pm 29.3 SE 18 21 1013.4 - - - - - - - - -
27/08:30pm 29.0 SE 18 21 1013.1 - - - - - - - - -
27/08:00pm 28.9 SE 18 21 1012.9 - - - - - - - - -
27/07:30pm 28.7 SSE 17 21 1012.8 - - - - - - - - -
27/07:00pm 28.8 SE 18 21 1012.5 - - - - - - - - -
27/06:30pm 28.4 SE 19 21 1012.2 - - - - - - - - -
27/06:00pm 28.3 SE 19 23 1011.8 - - - - - - - - -
27/05:30pm 28.1 SE 19 21 1011.5 - - - - - - - - -
27/05:00pm 28.3 SSE 19 22 1011.4 - - - - - - - - -
27/04:30pm 28.4 SE 19 23 1011.2 - - - - - - - - -
27/04:00pm 28.3 SE 20 23 1011.0 - - - - - - - - -
27/03:30pm 28.3 SE 20 23 1011.0 - - - - - - - - -
27/03:00pm 28.4 SE 19 21 1011.0 - - - - - - - - -
27/02:30pm 28.4 SE 19 21 1011.1 - - - - - - - - -
27/02:00pm 28.5 SE 18 21 1011.1 - - - - - - - - -
27/01:30pm 28.5 SE 18 21 1011.5 - - - - - - - - -
27/01:00pm 28.3 SE 19 22 1011.6 - - - - - - - - -
27/12:30pm 28.5 SE 18 22 1012.3 - - - - - - - - -
27/12:00pm 28.3 SE 19 23 1012.5 - - - - - - - - -
27/11:30am 28.5 ESE 20 23 1013.0 - - - - - - - - -
27/11:00am 28.4 ESE 20 26 1013.2 - - - - - - - - -
27/10:30am 28.5 ESE 22 25 1013.8 - - - - - - - - -
27/10:00am 28.5 ESE 21 25 1013.7 - - - - - - - - -
27/09:30am 28.7 ESE 22 26 1014.1 - - - - - - - - -
27/09:00am 28.7 ESE 23 27 1013.8 - - - - - - - - -
27/08:30am 28.8 ESE 21 25 1013.6 - - - - - - - - -
27/08:00am 28.8 ESE 22 28 1013.2 - - - - - - - - -
27/07:30am 28.6 ESE 23 26 1012.9 - - - - - - - - -
27/07:00am 28.7 ESE 22 26 1012.6 - - - - - - - - -
27/06:30am 28.6 ESE 22 26 1012.5 - - - - - - - - -
27/06:00am 28.8 ESE 23 26 1012.1 - - - - - - - - -
27/05:30am 29.0 ESE 23 27 1012.1 - - - - - - - - -
27/05:00am 29.1 SE 21 25 1011.7 - - - - - - - - -
27/04:30am 29.2 SE 22 26 1011.6 - - - - - - - - -
27/04:00am 29.3 SE 22 27 1011.4 - - - - - - - - -
27/03:30am 29.3 SE 23 27 1011.4 - - - - - - - - -
27/03:00am 29.6 SE 24 29 1011.3 - - - - - - - - -
27/02:30am 29.8 SE 21 24 1011.7 - - - - - - - - -
27/02:00am 29.7 SE 19 22 1011.9 - - - - - - - - -
27/01:30am 29.8 SE 17 19 1012.5 - - - - - - - - -
27/01:00am 29.7 SSE 17 19 1012.6 - - - - - - - - -
27/12:30am 29.6 SSE 18 21 1013.0 - - - - - - - - -
27/12:00am 29.7 SE 17 21 1013.0 - - - - - - - - -
 
Date/Time
WST
Temp
°C
Wind Pressure Rain since
9am
mm
Weather Cloud Vis
km
Sea
Height
m
Swell
Dir  Spd
kts
Gust
kts
hPa Trend Height
m
Period
s
Dir
26/11:30pm 29.8 SE 15 17 1013.3 - - - - - - - - -
26/11:00pm 30.0 SE 15 17 1013.3 - - - - - - - - -
26/10:30pm 29.9 SE 15 16 1013.4 - - - - - - - - -
26/10:00pm 29.8 SE 14 16 1013.3 - - - - - - - - -
26/09:30pm 29.6 SE 15 18 1013.6 - - - - - - - - -
26/09:00pm 29.6 SE 16 19 1013.3 - - - - - - - - -
26/08:30pm 29.4 SE 17 19 1013.2 - - - - - - - - -
26/08:00pm 29.2 SE 15 17 1012.9 - - - - - - - - -
26/07:30pm 28.9 SE 16 19 1012.5 - - - - - - - - -
26/07:00pm 28.8 SE 16 19 1012.2 - - - - - - - - -
26/06:30pm 28.8 SE 16 19 1012.0 - - - - - - - - -
26/06:00pm 28.8 SE 16 18 1011.6 - - - - - - - - -
26/05:30pm 29.0 ESE 16 19 1011.5 - - - - - - - - -
26/05:00pm 28.9 ESE 16 19 1011.1 - - - - - - - - -
26/04:30pm 29.0 ESE 17 20 1010.8 - - - - - - - - -
26/04:00pm 28.9 ESE 18 22 1010.4 - - - - - - - - -
26/03:30pm 28.9 ESE 19 21 1010.2 - - - - - - - - -
26/03:00pm 28.9 ESE 19 22 1010.3 - - - - - - - - -
26/02:30pm 28.9 ESE 19 22 1010.7 - - - - - - - - -
26/02:00pm 28.9 ESE 18 21 1010.7 - - - - - - - - -
26/01:30pm 29.0 ESE 19 22 1011.1 - - - - - - - - -
26/01:00pm 29.0 ESE 20 23 1011.1 - - - - - - - - -
26/12:30pm 28.7 ESE 20 23 1011.5 - - - - - - - - -
26/12:00pm 28.8 ESE 21 24 1011.6 - - - - - - - - -
26/11:30am 29.0 ESE 21 25 1012.1 - - - - - - - - -
26/11:00am 28.8 ESE 23 26 1012.2 - - - - - - - - -
26/10:30am 29.0 SE 22 25 1012.8 - - - - - - - - -
26/10:00am 29.0 SE 23 26 1012.9 - - - - - - - - -
26/09:30am 29.3 ESE 22 25 1013.3 - - - - - - - - -
26/09:00am 29.5 ESE 23 28 1013.0 - - - - - - - - -
26/08:30am 29.8 ESE 21 26 1012.9 - - - - - - - - -
26/08:00am 30.0 ESE 19 22 1012.6 - - - - - - - - -
26/07:30am 29.4 SE 16 19 1012.3 - - - - - - - - -
26/07:00am 29.0 SE 14 16 1012.1 - - - - - - - - -
26/06:30am 29.1 SE 15 17 1011.9 - - - - - - - - -
26/06:00am 29.0 SE 14 17 1011.5 - - - - - - - - -
26/05:30am 29.0 SSE 15 17 1011.6 - - - - - - - - -
26/05:00am 28.9 SSE 10 14 1011.3 - - - - - - - - -
26/04:30am 28.9 S 9 11 1011.5 - - - - - - - - -
26/04:00am 28.9 S 8 10 1011.5 - - - - - - - - -
26/03:30am 29.0 S 8 9 1011.8 - - - - - - - - -
26/03:00am 28.9 S 7 8 1011.8 - - - - - - - - -
26/02:30am 28.8 S 8 9 1012.2 - - - - - - - - -
26/02:00am 28.8 S 8 11 1012.3 - - - - - - - - -
26/01:30am 28.8 S 9 12 1012.6 - - - - - - - - -
26/01:00am 28.7 S 11 15 1012.8 - - - - - - - - -
26/12:30am 28.8 S 14 18 1013.1 - - - - - - - - -
26/12:00am 28.5 S 13 16 1013.1 - - - - - - - - -
 
Date/Time
WST
Temp
°C
Wind Pressure Rain since
9am
mm
Weather Cloud Vis
km
Sea
Height
m
Swell
Dir  Spd
kts
Gust
kts
hPa Trend Height
m
Period
s
Dir
25/11:30pm 28.3 S 14 16 1013.4 - - - - - - - - -
25/11:00pm 28.3 SSW 15 17 1013.3 - - - - - - - - -
25/10:30pm 28.4 SSW 15 17 1013.6 - - - - - - - - -
25/10:00pm 28.4 SSW 15 17 1013.7 - - - - - - - - -
25/09:30pm 28.4 S 15 18 1014.0 - - - - - - - - -
25/09:00pm 28.5 S 12 16 1013.8 - - - - - - - - -
25/08:30pm 28.5 S 11 15 1014.0 - - - - - - - - -
25/08:00pm 28.5 S 9 13 1013.6 - - - - - - - - -
25/07:30pm 28.5 S 10 14 1013.3 - - - - - - - - -
25/07:00pm 28.3 S 9 13 1012.9 - - - - - - - - -
25/06:30pm 28.6 S 9 12 1012.5 - - - - - - - - -
25/06:00pm 28.6 S 9 11 1012.3 - - - - - - - - -
25/05:30pm 28.6 SSE 11 14 1012.0 - - - - - - - - -
25/05:00pm 28.9 SSE 12 15 1011.7 - - - - - - - - -
25/04:30pm 29.0 S 10 15 1011.7 - - - - - - - - -
25/04:00pm 29.0 SSE 13 17 1011.3 - - - - - - - - -
25/03:30pm 28.9 SSE 11 16 1011.1 - - - - - - - - -
25/03:00pm 29.2 SSE 11 16 1010.9 - - - - - - - - -
25/02:30pm 29.3 SSE 11 14 1010.9 - - - - - - - - -

Other Formats:

Comma delimited format used in spreadsheet applications
http://www.bom.gov.au/fwo/IDW60701/IDW60701.94207.axf

JavaScript Object Notation format (JSON) in row-major order
http://www.bom.gov.au/fwo/IDW60701/IDW60701.94207.json